createdAt,value
2017-09-02T00:00:29.814Z,3.50
2017-09-02T00:02:57.302Z,3.40
2017-09-02T00:05:24.819Z,3.37
2017-09-02T00:07:52.307Z,3.63
2017-09-02T00:10:19.837Z,5.13
2017-09-02T00:12:47.329Z,4.13
2017-09-02T00:15:14.848Z,6.50
2017-09-02T00:17:42.370Z,5.30
2017-09-02T00:20:09.904Z,5.50
2017-09-02T00:22:37.386Z,3.67
2017-09-02T00:25:04.869Z,3.93
2017-09-02T00:27:32.389Z,3.47
2017-09-02T00:29:59.879Z,3.67
2017-09-02T00:32:27.411Z,4.60
2017-09-02T00:34:54.900Z,3.20
2017-09-02T00:37:22.375Z,3.77
2017-09-02T00:39:49.895Z,3.80
2017-09-02T00:42:17.420Z,3.80
2017-09-02T00:44:44.910Z,5.30
2017-09-02T00:47:12.404Z,4.40
2017-09-02T00:49:39.931Z,4.73
2017-09-02T00:52:07.403Z,5.03
2017-09-02T00:54:34.882Z,7.00
2017-09-02T00:57:02.401Z,7.93
2017-09-02T00:59:29.896Z,6.23
2017-09-02T01:01:57.416Z,6.20
2017-09-02T01:04:24.901Z,6.60
2017-09-02T01:06:52.424Z,10.10
2017-09-02T01:09:19.929Z,6.60
2017-09-02T01:11:47.411Z,5.23
2017-09-02T01:14:14.925Z,4.40
2017-09-02T01:16:42.407Z,4.10
2017-09-02T01:19:09.936Z,3.93
2017-09-02T01:21:37.450Z,4.40
2017-09-02T01:24:04.943Z,3.83
2017-09-02T01:26:32.468Z,4.50
2017-09-02T01:28:59.947Z,4.00
2017-09-02T01:31:27.468Z,3.50
2017-09-02T01:33:54.987Z,6.30
2017-09-02T01:36:22.476Z,7.47
2017-09-02T01:38:49.984Z,5.33
2017-09-02T01:41:17.474Z,4.93
2017-09-02T01:43:44.987Z,5.90
2017-09-02T01:46:12.477Z,4.70
2017-09-02T01:48:40.007Z,6.97
2017-09-02T01:51:07.488Z,6.63
2017-09-02T01:53:34.976Z,7.77
2017-09-02T01:56:02.503Z,8.30
2017-09-02T01:58:30.034Z,8.40
2017-09-02T02:01:04.252Z,7.63
2017-09-02T02:03:31.787Z,5.70
2017-09-02T02:05:59.275Z,6.90
2017-09-02T02:08:26.764Z,5.27
2017-09-02T02:10:54.288Z,6.30
2017-09-02T02:13:21.772Z,8.70
2017-09-02T02:15:49.307Z,7.90
2017-09-02T02:18:16.795Z,7.20
2017-09-02T02:20:44.283Z,5.17
2017-09-02T02:23:11.800Z,4.20
2017-09-02T02:25:39.333Z,3.60
2017-09-02T02:28:06.828Z,6.27
2017-09-02T02:30:34.312Z,5.77
2017-09-02T02:33:01.827Z,6.60
2017-09-02T02:35:29.348Z,8.67
2017-09-02T02:37:56.875Z,7.60
2017-09-02T02:40:24.360Z,8.50
2017-09-02T02:42:51.839Z,6.47
2017-09-02T02:45:19.356Z,5.63
2017-09-02T02:47:46.848Z,5.40
2017-09-02T02:50:14.339Z,5.73
2017-09-02T02:52:41.857Z,6.07
2017-09-02T02:55:09.379Z,8.10
2017-09-02T02:57:36.894Z,7.47
2017-09-02T03:00:04.384Z,6.10
2017-09-02T03:02:31.901Z,9.13
2017-09-02T03:04:59.382Z,5.93
2017-09-02T03:07:26.909Z,6.60
2017-09-02T03:09:54.405Z,6.30
2017-09-02T03:12:21.891Z,8.27
2017-09-02T03:14:49.416Z,8.80
2017-09-02T03:17:16.902Z,5.93
2017-09-02T03:19:44.416Z,6.83
2017-09-02T03:22:11.947Z,6.30
2017-09-02T03:24:39.428Z,6.43
2017-09-02T03:27:06.911Z,7.93
2017-09-02T03:29:34.440Z,6.40
2017-09-02T03:32:02.172Z,6.23
2017-09-02T03:34:29.664Z,6.60
2017-09-02T03:36:57.177Z,7.70
2017-09-02T03:39:24.665Z,7.80
2017-09-02T03:41:52.201Z,6.77
2017-09-02T03:44:19.684Z,8.83
2017-09-02T03:46:47.176Z,8.03
2017-09-02T03:49:14.705Z,7.80
2017-09-02T03:51:42.192Z,7.30
2017-09-02T03:54:09.684Z,5.67
2017-09-02T03:56:37.213Z,6.10
2017-09-02T03:59:04.744Z,5.17
2017-09-02T04:01:32.249Z,5.60
2017-09-02T04:03:59.794Z,6.50
2017-09-02T04:06:28.170Z,6.37
2017-09-02T04:08:55.699Z,8.80
2017-09-02T04:11:23.184Z,9.00
2017-09-02T04:13:50.719Z,5.90
2017-09-02T04:16:18.214Z,5.93
2017-09-02T04:18:45.708Z,9.00
2017-09-02T04:21:13.241Z,7.07
2017-09-02T04:23:40.736Z,7.13
2017-09-02T04:26:08.256Z,6.03
2017-09-02T04:28:35.745Z,6.63
2017-09-02T04:31:03.277Z,7.63
2017-09-02T04:33:30.765Z,5.00
2017-09-02T04:35:58.259Z,4.73
2017-09-02T04:38:25.772Z,6.13
2017-09-02T04:40:53.261Z,6.40
2017-09-02T04:43:20.781Z,4.47
2017-09-02T04:45:48.284Z,5.63
2017-09-02T04:48:15.781Z,4.33
2017-09-02T04:50:44.193Z,3.97
2017-09-02T04:53:11.728Z,3.93
2017-09-02T04:55:39.277Z,4.43
2017-09-02T04:58:06.774Z,3.90
2017-09-02T05:00:34.264Z,4.90
2017-09-02T05:03:01.784Z,4.27
2017-09-02T05:05:29.333Z,4.73
2017-09-02T05:07:56.833Z,4.27
2017-09-02T05:10:24.334Z,4.90
2017-09-02T05:12:51.853Z,4.83
2017-09-02T05:15:19.351Z,5.83
2017-09-02T05:17:46.876Z,5.23
2017-09-02T05:20:14.360Z,5.10
2017-09-02T05:22:41.877Z,6.10
2017-09-02T05:25:09.389Z,10.03
2017-09-02T05:27:36.898Z,9.03
2017-09-02T05:30:04.407Z,7.43
2017-09-02T05:32:31.899Z,6.87
2017-09-02T05:34:59.429Z,5.30
2017-09-02T05:37:26.963Z,8.20
2017-09-02T05:39:54.459Z,9.63
2017-09-02T05:42:21.955Z,8.17
2017-09-02T05:44:49.489Z,12.07
2017-09-02T05:47:16.981Z,7.50
2017-09-02T05:49:44.509Z,6.80
2017-09-02T05:52:12.013Z,8.77
2017-09-02T05:54:39.508Z,9.30
2017-09-02T05:57:07.050Z,9.70
2017-09-02T05:59:34.556Z,8.10
2017-09-02T06:02:02.053Z,9.00
2017-09-02T06:04:29.566Z,6.90
2017-09-02T06:06:57.065Z,7.60
2017-09-02T06:09:24.555Z,6.77
2017-09-02T06:11:52.078Z,4.50
2017-09-02T06:14:19.568Z,6.53
2017-09-02T06:16:47.101Z,9.70
2017-09-02T06:19:14.600Z,8.33
2017-09-02T06:21:42.099Z,6.30
2017-09-02T06:24:09.642Z,6.83
2017-09-02T06:26:37.142Z,6.53
2017-09-02T06:29:04.636Z,5.10
2017-09-02T06:31:32.159Z,6.63
2017-09-02T06:33:59.657Z,5.80
2017-09-02T06:36:27.181Z,6.23
2017-09-02T06:38:54.722Z,6.30
2017-09-02T06:41:22.211Z,6.13
2017-09-02T06:43:49.710Z,6.73
2017-09-02T06:46:17.245Z,7.83
2017-09-02T06:48:44.737Z,9.30
2017-09-02T06:51:12.288Z,7.27
2017-09-02T06:53:39.796Z,7.10
2017-09-02T06:56:07.328Z,7.27
2017-09-02T06:58:34.902Z,8.47
2017-09-02T07:01:02.397Z,8.73
2017-09-02T07:03:29.933Z,6.67
2017-09-02T07:05:57.429Z,7.83
2017-09-02T07:08:24.920Z,8.30
2017-09-02T07:10:52.445Z,6.17
2017-09-02T07:13:19.941Z,6.17
2017-09-02T07:15:47.472Z,10.30
2017-09-02T07:18:14.965Z,5.90
2017-09-02T07:20:42.498Z,8.13
2017-09-02T07:23:09.991Z,5.50
2017-09-02T07:25:37.529Z,5.73
2017-09-02T07:28:05.019Z,5.03
2017-09-02T07:30:33.472Z,5.10
2017-09-02T07:33:01.008Z,5.77
2017-09-02T07:35:28.726Z,5.40
2017-09-02T07:37:56.227Z,6.30
2017-09-02T07:40:23.753Z,5.80
2017-09-02T07:42:51.246Z,6.13
2017-09-02T07:45:18.787Z,8.53
2017-09-02T07:47:49.598Z,9.27
2017-09-02T07:50:17.206Z,6.43
2017-09-02T07:52:44.736Z,6.37
2017-09-02T07:55:12.234Z,6.93
2017-09-02T07:57:39.781Z,5.50
2017-09-02T08:00:07.985Z,7.20
2017-09-02T08:02:35.509Z,6.37
2017-09-02T08:05:03.060Z,6.40
2017-09-02T08:07:30.565Z,6.87
2017-09-02T08:09:58.057Z,9.00
2017-09-02T08:12:25.581Z,8.50
2017-09-02T08:14:53.069Z,7.47
2017-09-02T08:17:20.612Z,7.20
2017-09-02T08:19:48.114Z,6.13
2017-09-02T08:22:15.619Z,4.40
2017-09-02T08:24:43.154Z,5.70
2017-09-02T08:27:10.657Z,8.33
2017-09-02T08:29:38.202Z,5.17
2017-09-02T08:32:05.693Z,5.73
2017-09-02T08:34:33.181Z,4.30
2017-09-02T08:37:00.717Z,3.30
2017-09-02T08:39:28.210Z,3.23
2017-09-02T08:41:55.694Z,3.53
2017-09-02T08:44:23.229Z,4.73
2017-09-02T08:46:50.731Z,3.30
2017-09-02T08:49:18.219Z,4.27
2017-09-02T08:51:45.767Z,3.00
2017-09-02T08:54:13.256Z,2.50
2017-09-02T08:56:40.756Z,3.20
2017-09-02T08:59:08.297Z,2.90
2017-09-02T09:01:35.787Z,2.73
2017-09-02T09:04:03.289Z,3.43
2017-09-02T09:06:30.822Z,3.77
2017-09-02T09:08:58.307Z,3.00
2017-09-02T09:11:25.839Z,2.70
2017-09-02T09:13:53.354Z,2.93
2017-09-02T09:16:20.858Z,3.07
2017-09-02T09:18:48.401Z,4.20
2017-09-02T09:21:15.892Z,2.60
2017-09-02T09:23:43.394Z,4.13
2017-09-02T09:26:10.920Z,2.80
2017-09-02T09:28:38.428Z,1.70
2017-09-02T09:31:05.954Z,1.93
2017-09-02T09:33:33.447Z,2.10
2017-09-02T09:36:00.986Z,2.60
2017-09-02T09:38:28.481Z,4.70
2017-09-02T09:40:55.982Z,2.43
2017-09-02T09:43:23.529Z,2.70
2017-09-02T09:45:51.012Z,2.50
2017-09-02T09:48:18.513Z,2.83
2017-09-02T09:50:46.037Z,1.90
2017-09-02T09:53:13.529Z,3.03
2017-09-02T09:55:41.061Z,1.77
2017-09-02T09:58:08.561Z,1.63
2017-09-02T10:00:36.093Z,1.30
2017-09-02T10:03:03.581Z,2.17
2017-09-02T10:05:31.104Z,3.67
2017-09-02T10:07:58.637Z,2.60
2017-09-02T10:10:26.120Z,2.20
2017-09-02T10:12:53.612Z,1.83
2017-09-02T10:15:21.169Z,1.97
2017-09-02T10:17:58.062Z,1.90
2017-09-02T10:20:29.694Z,1.93
2017-09-02T10:22:57.207Z,1.80
2017-09-02T10:25:24.736Z,1.50
2017-09-02T10:27:52.261Z,1.87
2017-09-02T10:30:19.763Z,1.80
2017-09-02T10:32:47.268Z,1.40
2017-09-02T10:35:14.794Z,1.60
2017-09-02T10:37:42.284Z,2.40
2017-09-02T10:40:09.797Z,1.63
2017-09-02T10:42:37.318Z,1.53
2017-09-02T10:45:05.112Z,1.07
2017-09-02T10:47:32.599Z,2.13
2017-09-02T10:50:00.100Z,2.50
2017-09-02T10:52:27.632Z,2.50
2017-09-02T10:54:55.125Z,2.13
2017-09-02T10:57:22.617Z,3.87
2017-09-02T10:59:50.140Z,2.00
2017-09-02T11:02:17.628Z,2.23
2017-09-02T11:04:45.169Z,1.47
2017-09-02T11:07:12.665Z,2.03
2017-09-02T11:09:40.165Z,2.40
2017-09-02T11:12:07.732Z,1.80
2017-09-02T11:14:35.231Z,1.70
2017-09-02T11:17:02.728Z,3.93
2017-09-02T11:19:30.245Z,2.03
2017-09-02T11:21:57.741Z,2.00
2017-09-02T11:24:25.268Z,1.77
2017-09-02T11:26:53.681Z,2.33
2017-09-02T11:29:21.178Z,1.70
2017-09-02T11:31:48.694Z,3.20
2017-09-02T11:34:16.202Z,1.90
2017-09-02T11:36:43.701Z,1.70
2017-09-02T11:39:11.232Z,1.73
2017-09-02T11:41:38.780Z,1.40
2017-09-02T11:44:06.341Z,1.40
2017-09-02T11:46:33.841Z,1.40
2017-09-02T11:49:01.374Z,1.53
2017-09-02T11:51:28.866Z,1.20
2017-09-02T11:53:56.394Z,1.40
2017-09-02T11:56:25.258Z,1.30
2017-09-02T11:58:52.771Z,2.47
2017-09-02T12:01:20.277Z,1.87
2017-09-02T12:03:47.798Z,2.40
2017-09-02T12:06:15.285Z,2.23
2017-09-02T12:08:42.806Z,1.50
2017-09-02T12:11:10.340Z,2.43
2017-09-02T12:13:38.634Z,1.53
2017-09-02T12:16:06.201Z,2.47
2017-09-02T12:18:33.754Z,1.47
2017-09-02T12:21:01.246Z,2.17
2017-09-02T12:23:28.815Z,1.43
2017-09-02T12:25:56.325Z,1.57
2017-09-02T12:28:24.590Z,1.13
2017-09-02T12:30:52.141Z,2.00
2017-09-02T12:33:19.637Z,1.80
2017-09-02T12:35:47.165Z,1.40
2017-09-02T12:38:14.665Z,3.40
2017-09-02T12:40:42.207Z,1.60
2017-09-02T12:43:09.694Z,1.47
2017-09-02T12:45:37.324Z,1.60
2017-09-02T12:48:04.987Z,1.40
2017-09-02T12:50:32.515Z,1.27
2017-09-02T12:53:00.032Z,1.53
2017-09-02T12:55:27.524Z,1.40
2017-09-02T12:57:55.057Z,1.37
2017-09-02T13:00:23.328Z,1.37
2017-09-02T13:02:50.855Z,0.93
2017-09-02T13:05:18.380Z,1.50
2017-09-02T13:07:45.880Z,1.13
2017-09-02T13:10:13.421Z,1.73
2017-09-02T13:12:40.916Z,2.50
2017-09-02T13:15:08.413Z,2.10
2017-09-02T13:17:35.940Z,1.37
2017-09-02T13:20:03.437Z,1.27
2017-09-02T13:22:30.934Z,1.10
2017-09-02T13:24:58.456Z,1.60
2017-09-02T13:27:25.991Z,1.20
2017-09-02T13:29:53.516Z,0.93
2017-09-02T13:32:21.019Z,1.50
2017-09-02T13:34:48.511Z,1.37
2017-09-02T13:37:16.137Z,1.40
2017-09-02T13:39:43.689Z,1.33
2017-09-02T13:42:11.187Z,1.70
2017-09-02T13:44:38.722Z,1.43
2017-09-02T13:47:06.269Z,0.93
2017-09-02T13:49:33.761Z,2.33
2017-09-02T13:52:01.252Z,2.00
2017-09-02T13:54:28.796Z,0.83
2017-09-02T13:56:56.299Z,1.77
2017-09-02T13:59:23.799Z,2.17
2017-09-02T14:01:51.332Z,1.83
2017-09-02T14:04:18.903Z,1.60
2017-09-02T14:06:46.407Z,2.10
2017-09-02T14:09:13.960Z,1.50
2017-09-02T14:11:41.486Z,1.37
2017-09-02T14:14:09.138Z,1.90
2017-09-02T14:16:36.692Z,1.80
2017-09-02T14:19:04.244Z,1.70
2017-09-02T14:21:31.754Z,2.53
2017-09-02T14:23:59.242Z,1.30
2017-09-02T14:26:26.804Z,2.67
2017-09-02T14:28:54.346Z,2.70
2017-09-02T14:31:21.841Z,1.37
2017-09-02T14:33:49.328Z,1.43
2017-09-02T14:36:16.872Z,1.40
2017-09-02T14:38:44.373Z,1.70
2017-09-02T14:41:11.910Z,1.70
2017-09-02T14:43:39.401Z,1.37
2017-09-02T14:46:06.932Z,1.33
2017-09-02T14:48:34.423Z,2.50
2017-09-02T14:51:01.917Z,1.73
2017-09-02T14:53:29.449Z,1.50
2017-09-02T14:55:56.970Z,3.13
2017-09-02T14:58:24.536Z,1.57
2017-09-02T15:00:52.044Z,1.60
2017-09-02T15:03:19.572Z,1.37
2017-09-02T15:05:47.104Z,1.27
2017-09-02T15:08:15.581Z,2.87
2017-09-02T15:10:43.190Z,1.63
2017-09-02T15:13:10.712Z,2.03
2017-09-02T15:15:38.206Z,1.63
2017-09-02T15:18:05.996Z,1.53
2017-09-02T15:20:33.492Z,2.23
2017-09-02T15:23:00.985Z,1.50
2017-09-02T15:25:28.515Z,5.60
2017-09-02T15:27:56.332Z,1.43
2017-09-02T15:30:23.869Z,1.80
2017-09-02T15:32:51.388Z,2.63
2017-09-02T15:35:18.880Z,1.87
2017-09-02T15:37:46.404Z,1.30
2017-09-02T15:40:13.924Z,1.57
2017-09-02T15:42:41.417Z,1.80
2017-09-02T15:45:08.954Z,1.13
2017-09-02T15:47:36.498Z,1.53
2017-09-02T15:50:03.994Z,1.77
2017-09-02T15:52:31.484Z,1.90
2017-09-02T15:54:59.002Z,2.80
2017-09-02T15:57:26.500Z,1.60
2017-09-02T15:59:54.018Z,2.87
2017-09-02T16:02:21.515Z,1.73
2017-09-02T16:04:49.059Z,1.77
2017-09-02T16:07:16.562Z,1.63
2017-09-02T16:09:44.069Z,2.10
2017-09-02T16:12:11.593Z,1.53
2017-09-02T16:14:39.082Z,1.77
2017-09-02T16:17:06.595Z,1.57
2017-09-02T16:19:34.114Z,2.07
2017-09-02T16:22:01.729Z,2.90
2017-09-02T16:24:29.260Z,5.53
2017-09-02T16:26:56.748Z,2.53
2017-09-02T16:29:24.301Z,2.60
2017-09-02T16:31:51.846Z,2.70
2017-09-02T16:34:19.340Z,3.10
2017-09-02T16:36:46.838Z,2.30
2017-09-02T16:39:14.363Z,3.73
2017-09-02T16:41:41.863Z,4.27
2017-09-02T16:44:09.393Z,2.13
2017-09-02T16:46:36.974Z,1.67
2017-09-02T16:49:04.488Z,2.67
2017-09-02T16:51:32.021Z,2.77
2017-09-02T16:53:59.511Z,2.53
2017-09-02T16:56:27.046Z,2.10
2017-09-02T16:58:54.614Z,2.03
2017-09-02T17:01:22.130Z,1.60
2017-09-02T17:03:49.612Z,1.70
2017-09-02T17:06:17.125Z,2.03
2017-09-02T17:08:44.670Z,1.40
2017-09-02T17:11:12.181Z,1.77
2017-09-02T17:13:39.680Z,1.77
2017-09-02T17:16:07.212Z,1.70
2017-09-02T17:18:34.711Z,1.80
2017-09-02T17:21:02.250Z,1.83
2017-09-02T17:23:29.957Z,1.40
2017-09-02T17:25:57.517Z,1.87
2017-09-02T17:28:25.108Z,4.10
2017-09-02T17:30:52.662Z,2.60
2017-09-02T17:33:20.181Z,2.30
2017-09-02T17:35:47.672Z,2.53
2017-09-02T17:38:15.244Z,1.93
2017-09-02T17:40:42.738Z,2.10
2017-09-02T17:43:10.893Z,2.60
2017-09-02T17:45:38.398Z,2.10
2017-09-02T17:48:05.918Z,2.70
2017-09-02T17:50:33.440Z,1.97
2017-09-02T17:53:00.933Z,3.00
2017-09-02T17:55:28.474Z,1.73
2017-09-02T17:57:55.992Z,2.30
2017-09-02T18:00:23.571Z,1.70
2017-09-02T18:02:51.061Z,2.20
2017-09-02T18:05:18.592Z,2.30
2017-09-02T18:07:46.089Z,2.20
2017-09-02T18:10:14.353Z,1.60
2017-09-02T18:12:41.899Z,1.80
2017-09-02T18:15:09.398Z,2.00
2017-09-02T18:17:36.894Z,2.03
2017-09-02T18:20:04.433Z,1.90
2017-09-02T18:22:31.930Z,1.93
2017-09-02T18:25:00.438Z,1.97
2017-09-02T18:27:27.969Z,2.23
2017-09-02T18:29:55.471Z,1.80
2017-09-02T18:32:22.971Z,1.80
2017-09-02T18:34:50.501Z,2.17
2017-09-02T18:37:18.028Z,1.70
2017-09-02T18:39:45.521Z,2.20
2017-09-02T18:42:13.201Z,1.80
2017-09-02T18:44:40.712Z,1.80
2017-09-02T18:47:08.226Z,1.53
2017-09-02T18:49:35.765Z,1.50
2017-09-02T18:52:03.251Z,1.50
2017-09-02T18:54:30.738Z,1.33
2017-09-02T18:56:58.271Z,2.07
2017-09-02T18:59:25.788Z,2.00
2017-09-02T19:01:53.330Z,1.73
2017-09-02T19:04:20.824Z,1.40
2017-09-02T19:06:48.348Z,1.50
2017-09-02T19:09:15.847Z,1.40
2017-09-02T19:11:43.353Z,1.30
2017-09-02T19:14:10.877Z,1.97
2017-09-02T19:16:38.369Z,1.17
2017-09-02T19:19:05.900Z,1.63
2017-09-02T19:21:33.441Z,3.23
2017-09-02T19:24:00.976Z,1.20
2017-09-02T19:26:28.477Z,1.23
2017-09-02T19:28:55.978Z,1.00
2017-09-02T19:31:23.515Z,1.90
2017-09-02T19:33:51.007Z,1.30
2017-09-02T19:36:18.540Z,0.90
2017-09-02T19:38:46.041Z,1.90
2017-09-02T19:41:13.543Z,1.70
2017-09-02T19:43:41.102Z,2.13
2017-09-02T19:46:09.634Z,1.97
2017-09-02T19:48:37.159Z,1.63
2017-09-02T19:51:04.710Z,1.63
2017-09-02T19:53:33.402Z,1.27
2017-09-02T19:56:00.916Z,1.73
2017-09-02T19:58:28.461Z,2.60
2017-09-02T20:00:57.785Z,1.63
2017-09-02T20:03:27.777Z,1.47
2017-09-02T20:05:57.051Z,1.23
2017-09-02T20:08:24.546Z,2.57
2017-09-02T20:10:52.102Z,1.30
2017-09-02T20:13:19.596Z,1.40
2017-09-02T20:15:47.111Z,1.30
2017-09-02T20:18:14.640Z,1.90
2017-09-02T20:20:42.172Z,1.73
2017-09-02T20:23:09.658Z,1.73
2017-09-02T20:25:37.330Z,2.20
2017-09-02T20:28:06.413Z,1.33
2017-09-02T20:30:43.369Z,1.90
2017-09-02T20:33:10.892Z,2.40
2017-09-02T20:35:38.403Z,1.73
2017-09-02T20:38:05.945Z,1.87
2017-09-02T20:40:34.561Z,2.23
2017-09-02T20:43:02.054Z,1.90
2017-09-02T20:45:29.590Z,1.77
2017-09-02T20:47:57.101Z,1.80
2017-09-02T20:50:24.627Z,1.60
2017-09-02T20:52:52.140Z,2.10
2017-09-02T20:55:19.679Z,1.80
2017-09-02T20:57:47.211Z,1.73
2017-09-02T21:00:14.725Z,1.50
2017-09-02T21:02:42.266Z,1.57
2017-09-02T21:05:09.758Z,1.23
2017-09-02T21:07:37.253Z,1.87
2017-09-02T21:10:04.783Z,1.60
2017-09-02T21:12:32.286Z,4.60
2017-09-02T21:14:59.821Z,1.50
2017-09-02T21:17:27.331Z,0.80
2017-09-02T21:19:54.856Z,1.40
2017-09-02T21:22:22.357Z,1.00
